Time;durP1;ratioP1;P1;durP2;ratioP2;P2;SDS_P1;SDS_P2;PMS_P1;PMS_P2;Temp;Humidity;BMP_temperature;BMP_pressure;BME280_temperature;BME280_humidity;BME280_pressure;Samples;Min_cycle;Max_cycle;Signal;HPM_P1;HPM_P2
2022/03/26 00:00:45;;;;;;;18.85;8.43;;;;;;;6.84;57.92;100640.41;5096052;28;20539;-69
2022/03/26 00:03:14;;;;;;;18.33;8.90;;;;;;;6.92;57.75;100638.94;5095827;28;20123;-69
2022/03/26 00:05:45;;;;;;;20.20;8.83;;;;;;;7.09;56.84;100643.69;5095936;28;20285;-69
2022/03/26 00:08:14;;;;;;;16.27;7.80;;;;;;;7.02;56.75;100640.94;5094981;28;20650;-69
2022/03/26 00:10:43;;;;;;;18.85;9.57;;;;;;;6.89;56.93;100638.84;5095802;28;20048;-69
2022/03/26 00:13:12;;;;;;;20.75;7.93;;;;;;;6.82;57.28;100637.81;5095746;28;20044;-69
2022/03/26 00:15:41;;;;;;;18.27;7.23;;;;;;;6.81;57.49;100645.38;5095897;28;20040;-69
2022/03/26 00:18:17;;;;;;;18.73;8.30;;;;;;;6.74;57.56;100632.50;5095850;28;20326;-69
2022/03/26 00:20:48;;;;;;;16.80;8.02;;;;;;;6.74;57.56;100636.75;5095647;28;20062;-69
2022/03/26 00:23:17;;;;;;;17.73;8.48;;;;;;;6.75;57.44;100635.91;5095391;28;20047;-69
2022/03/26 00:25:46;;;;;;;20.95;8.13;;;;;;;6.62;57.74;100633.84;5095836;28;20036;-69
2022/03/26 00:28:16;;;;;;;18.90;8.57;;;;;;;6.64;57.76;100633.06;5094723;28;20530;-69
2022/03/26 00:30:44;;;;;;;15.50;8.00;;;;;;;6.59;58.07;100633.72;5095455;28;20500;-69
2022/03/26 00:33:13;;;;;;;22.27;8.57;;;;;;;6.44;58.33;100629.06;5095352;28;20040;-69
2022/03/26 00:35:43;;;;;;;11.33;5.63;;;;;;;6.48;58.55;100630.84;5094431;28;20536;-69
2022/03/26 00:38:13;;;;;;;16.17;7.43;;;;;;;6.56;58.44;100629.44;5095608;28;20312;-69
2022/03/26 00:40:42;;;;;;;17.60;8.20;;;;;;;6.59;58.49;100639.69;5095603;28;20423;-69
2022/03/26 00:43:11;;;;;;;16.17;8.07;;;;;;;6.66;58.06;100631.44;5095620;28;20040;-68
2022/03/26 00:45:40;;;;;;;19.35;8.23;;;;;;;6.73;57.82;100633.34;5095173;28;20043;-69
2022/03/26 00:48:10;;;;;;;17.00;7.23;;;;;;;6.70;57.54;100638.31;5095629;28;20044;-69
2022/03/26 00:50:39;;;;;;;12.95;7.47;;;;;;;6.57;57.86;100636.22;5095966;28;20387;-69
2022/03/26 00:53:07;;;;;;;15.70;8.30;;;;;;;6.48;57.68;100635.94;5095518;28;20051;-69
2022/03/26 00:55:38;;;;;;;16.75;7.70;;;;;;;6.25;57.84;100626.75;5094972;28;20502;-69
2022/03/26 00:58:07;;;;;;;17.45;8.45;;;;;;;6.27;58.38;100634.41;5095259;28;20413;-69
2022/03/26 01:00:36;;;;;;;19.30;9.00;;;;;;;6.10;58.22;100626.25;5095164;28;20405;-69
2022/03/26 01:03:08;;;;;;;15.70;8.33;;;;;;;5.96;58.66;100630.03;5094894;28;20119;-69
2022/03/26 01:05:38;;;;;;;18.17;8.20;;;;;;;5.90;58.96;100633.19;5094932;28;20297;-69
2022/03/26 01:08:07;;;;;;;;;;;;;;;5.88;58.96;100628.91;5095208;28;20044;-69
2022/03/26 01:10:38;;;;;;;21.13;7.75;;;;;;;5.84;59.31;100627.94;5095024;28;19989;-69
2022/03/26 01:13:07;;;;;;;18.25;8.10;;;;;;;5.94;58.84;100629.13;5094641;28;20058;-69
2022/03/26 01:15:36;;;;;;;19.47;8.43;;;;;;;5.76;58.94;100639.44;5095118;28;20440;-69
2022/03/26 01:18:05;;;;;;;19.42;8.13;;;;;;;5.66;59.35;100634.03;5094466;28;20494;-69
2022/03/26 01:20:35;;;;;;;20.33;7.47;;;;;;;5.54;59.95;100641.22;5094537;28;20047;-69
2022/03/26 01:23:04;;;;;;;18.08;8.90;;;;;;;5.55;60.19;100643.78;5094479;28;20094;-69
2022/03/26 01:25:33;;;;;;;;;;;;;;;5.51;60.02;100641.09;5094771;28;20058;-69
2022/03/26 01:28:04;;;;;;;16.55;7.70;;;;;;;5.58;59.58;100632.91;5094372;28;19931;-69
2022/03/26 01:30:33;;;;;;;20.30;7.88;;;;;;;5.56;60.33;100626.94;5094940;28;20048;-69
2022/03/26 01:33:02;;;;;;;17.70;7.75;;;;;;;5.61;59.96;100628.81;5094285;28;20093;-69
2022/03/26 01:35:31;;;;;;;20.13;9.35;;;;;;;5.64;59.62;100623.84;5094550;28;20040;-69
2022/03/26 01:38:04;;;;;;;20.65;8.93;;;;;;;5.60;60.35;100631.28;5094444;28;20047;-69
2022/03/26 01:40:34;;;;;;;22.70;8.82;;;;;;;5.61;59.97;100633.03;5094492;28;20047;-69
2022/03/26 01:43:06;;;;;;;16.42;8.10;;;;;;;5.50;60.44;100631.78;5094429;28;20086;-69
2022/03/26 01:45:35;;;;;;;16.08;7.55;;;;;;;5.40;60.53;100639.06;5093974;28;20093;-69
2022/03/26 01:48:04;;;;;;;17.00;7.90;;;;;;;5.36;60.50;100641.44;5093650;28;20068;-69
2022/03/26 01:50:33;;;;;;;19.83;8.35;;;;;;;5.30;60.34;100642.06;5094005;28;20071;-69
2022/03/26 01:53:03;;;;;;;18.00;7.43;;;;;;;5.35;61.07;100635.50;5094227;28;20044;-69
2022/03/26 01:55:32;;;;;;;17.15;8.48;;;;;;;5.38;60.92;100639.81;5094447;28;20485;-69
2022/03/26 01:58:01;;;;;;;18.95;8.93;;;;;;;5.35;60.80;100640.56;5094232;28;20481;-69
2022/03/26 02:00:32;;;;;;;17.83;7.90;;;;;;;5.28;61.07;100643.69;5093894;28;20036;-69
2022/03/26 02:03:01;;;;;;;20.63;8.00;;;;;;;5.32;61.77;100645.53;5093892;28;20056;-69
2022/03/26 02:05:30;;;;;;;17.27;8.07;;;;;;;5.22;61.36;100633.34;5093685;28;20093;-69
2022/03/26 02:07:59;;;;;;;15.45;8.23;;;;;;;5.18;61.25;100639.09;5094266;28;20055;-69
2022/03/26 02:10:28;;;;;;;14.90;7.97;;;;;;;5.16;61.67;100638.19;5094022;28;20080;-69
2022/03/26 02:12:58;;;;;;;16.90;7.68;;;;;;;5.26;60.72;100630.13;5093922;28;20055;-69
2022/03/26 02:15:27;;;;;;;15.57;7.72;;;;;;;5.34;61.37;100638.84;5093621;28;20047;-69
2022/03/26 02:17:57;;;;;;;16.55;7.75;;;;;;;5.35;60.58;100635.50;5093554;28;20493;-69
2022/03/26 02:20:28;;;;;;;16.30;7.55;;;;;;;5.43;60.57;100639.16;5093949;28;20048;-69
2022/03/26 02:22:57;;;;;;;17.08;7.20;;;;;;;5.29;60.63;100635.28;5093903;28;20052;-69
2022/03/26 02:25:26;;;;;;;16.90;6.57;;;;;;;5.30;60.33;100637.00;5093677;28;20040;-69
2022/03/26 02:27:56;;;;;;;14.15;7.35;;;;;;;5.20;60.67;100624.84;5093775;28;20040;-69
2022/03/26 02:30:25;;;;;;;17.23;7.33;;;;;;;5.29;60.34;100637.81;5093819;28;20406;-69
2022/03/26 02:32:53;;;;;;;13.70;6.67;;;;;;;5.22;60.10;100628.28;5093785;28;20127;-69
2022/03/26 02:35:23;;;;;;;17.92;7.28;;;;;;;5.13;61.06;100627.97;5093849;28;20273;-69
2022/03/26 02:37:53;;;;;;;15.63;6.63;;;;;;;5.18;60.70;100636.56;5093622;28;20048;-69
2022/03/26 02:40:22;;;;;;;16.40;6.57;;;;;;;5.07;60.26;100627.72;5093497;28;20052;-69
2022/03/26 02:42:51;;;;;;;16.07;6.70;;;;;;;4.88;60.73;100640.50;5093383;28;20047;-69
2022/03/26 02:45:20;;;;;;;15.80;7.03;;;;;;;4.67;61.16;100637.19;5093374;28;20310;-69
2022/03/26 02:47:51;;;;;;;13.90;6.03;;;;;;;4.54;61.87;100642.56;5093351;28;20494;-69
2022/03/26 02:50:20;;;;;;;15.32;6.68;;;;;;;4.39;62.52;100642.00;5093674;28;20062;-69
2022/03/26 02:52:50;;;;;;;16.98;7.43;;;;;;;4.18;62.75;100631.88;5093632;28;20032;-69
2022/03/26 02:55:21;;;;;;;13.25;6.68;;;;;;;4.01;63.62;100643.84;5093318;28;20044;-69
2022/03/26 02:57:50;;;;;;;13.43;6.82;;;;;;;3.98;63.70;100643.69;5093539;28;20394;-68
2022/03/26 03:00:18;;;;;;;15.43;6.78;;;;;;;4.04;63.77;100650.66;5096573;28;20036;-68
2022/03/26 03:02:48;;;;;;;14.00;6.25;;;;;;;4.14;64.23;100649.38;5097374;28;20040;-69
2022/03/26 03:05:17;;;;;;;;;;;;;;;4.26;63.52;100644.81;5097774;28;20056;-69
2022/03/26 03:07:46;;;;;;;13.00;5.85;;;;;;;4.16;63.13;100638.53;5097053;28;19920;-69
2022/03/26 03:10:15;;;;;;;17.40;7.67;;;;;;;4.08;63.49;100635.69;5097045;28;20072;-69
2022/03/26 03:12:47;;;;;;;15.57;5.93;;;;;;;3.81;63.78;100634.59;5097288;28;20117;-69
2022/03/26 03:15:17;;;;;;;11.10;6.10;;;;;;;3.74;64.46;100640.16;5096955;28;20044;-69
2022/03/26 03:17:48;;;;;;;16.38;7.30;;;;;;;3.78;63.58;100628.53;5096769;28;20056;-69
2022/03/26 03:20:17;;;;;;;12.30;5.97;;;;;;;3.77;64.38;100636.91;5097477;28;20050;-69
2022/03/26 03:22:46;;;;;;;15.45;6.53;;;;;;;3.68;63.87;100632.34;5097102;28;20048;-69
2022/03/26 03:25:15;;;;;;;13.73;4.80;;;;;;;3.76;64.42;100635.19;5096944;28;20072;-69
2022/03/26 03:27:45;;;;;;;15.67;6.57;;;;;;;3.63;63.99;100628.75;5096700;28;20119;-69
2022/03/26 03:30:14;;;;;;;18.52;8.18;;;;;;;3.66;63.74;100633.94;5096654;28;20052;-69
2022/03/26 03:32:43;;;;;;;11.70;5.35;;;;;;;3.57;64.67;100633.56;5096721;28;20082;-69
2022/03/26 03:35:12;;;;;;;12.73;4.90;;;;;;;3.62;64.48;100631.25;5096593;28;20040;-69
2022/03/26 03:37:41;;;;;;;19.60;7.38;;;;;;;3.66;63.78;100613.75;5096535;28;20044;-69
2022/03/26 03:40:13;;;;;;;17.17;6.57;;;;;;;3.70;64.40;100635.78;5096370;28;20048;-69
2022/03/26 03:42:42;;;;;;;14.82;6.93;;;;;;;3.69;64.20;100634.09;5096494;28;20139;-69
2022/03/26 03:45:13;;;;;;;15.03;6.60;;;;;;;3.78;63.48;100631.06;5096216;28;20082;-69
2022/03/26 03:47:42;;;;;;;12.73;6.20;;;;;;;3.85;63.70;100631.38;5096386;28;20339;-69
2022/03/26 03:50:11;;;;;;;12.13;5.93;;;;;;;3.82;63.64;100626.22;5096213;28;20060;-69
2022/03/26 03:52:39;;;;;;;16.52;7.20;;;;;;;3.67;64.06;100630.63;5096213;28;20047;-69
2022/03/26 03:55:09;;;;;;;16.83;7.07;;;;;;;3.65;63.70;100627.16;5096495;28;20071;-69
2022/03/26 03:57:43;;;;;;;15.57;7.93;;;;;;;3.76;63.85;100628.50;5096402;28;20509;-69
2022/03/26 04:00:16;;;;;;;17.15;6.85;;;;;;;3.63;63.95;100623.72;5095984;28;20044;-69
2022/03/26 04:02:45;;;;;;;12.82;5.93;;;;;;;3.44;63.90;100631.31;5096396;28;20048;-69
2022/03/26 04:05:15;;;;;;;12.98;6.05;;;;;;;3.31;64.82;100627.38;5095911;28;20074;-68
2022/03/26 04:07:44;;;;;;;;;;;;;;;3.20;64.68;100632.78;5096708;28;20075;-69
2022/03/26 04:10:13;;;;;;;15.07;6.47;;;;;;;3.24;65.32;100622.00;5095776;28;19952;-69
2022/03/26 04:12:44;;;;;;;12.23;6.28;;;;;;;3.36;64.33;100625.06;5095860;28;20044;-68
2022/03/26 04:15:15;;;;;;;16.13;6.85;;;;;;;3.53;64.73;100626.66;5095857;28;20067;-69
2022/03/26 04:17:44;;;;;;;13.52;6.18;;;;;;;3.56;64.58;100631.84;5095748;28;20091;-69
2022/03/26 04:20:13;;;;;;;15.17;6.47;;;;;;;3.67;63.88;100620.50;5095640;28;20040;-69
2022/03/26 04:22:42;;;;;;;16.38;6.32;;;;;;;3.35;64.59;100631.78;5095562;28;20794;-69
2022/03/26 04:25:11;;;;;;;19.33;6.38;;;;;;;3.26;64.60;100633.06;5095503;28;20046;-69
2022/03/26 04:27:43;;;;;;;;;;;;;;;3.41;64.59;100635.38;5096231;28;20048;-69
2022/03/26 04:30:12;;;;;;;13.32;5.45;;;;;;;3.54;64.13;100642.66;5095422;28;19926;-69
2022/03/26 04:32:43;;;;;;;;;;;;;;;3.42;64.55;100637.97;5095866;28;20036;-69
2022/03/26 04:35:12;;;;;;;12.18;5.63;;;;;;;3.27;64.85;100642.34;5095677;28;19955;-69
2022/03/26 04:37:41;;;;;;;15.27;6.20;;;;;;;3.27;65.28;100644.84;5095895;28;20054;-69
2022/03/26 04:40:11;;;;;;;13.90;6.57;;;;;;;3.18;65.57;100652.03;5095330;28;20093;-68
2022/03/26 04:42:41;;;;;;;16.10;7.38;;;;;;;3.22;65.10;100653.88;5095151;28;20043;-68
2022/03/26 04:45:11;;;;;;;13.82;4.78;;;;;;;3.16;65.24;100657.00;5095141;28;20113;-69
2022/03/26 04:47:40;;;;;;;;;;;;;;;3.23;66.06;100650.56;5095785;28;20398;-68
2022/03/26 04:50:12;;;;;;;20.58;5.82;;;;;;;3.26;65.43;100660.81;5095141;28;19945;-68
2022/03/26 04:52:41;;;;;;;14.75;6.38;;;;;;;3.14;65.85;100647.66;5095184;28;20064;-68
2022/03/26 04:55:11;;;;;;;17.25;6.13;;;;;;;3.24;65.30;100658.19;5095039;28;20040;-69
2022/03/26 04:57:40;;;;;;;12.55;5.85;;;;;;;3.26;65.62;100650.72;5094989;28;20066;-68
2022/03/26 05:00:12;;;;;;;15.40;6.28;;;;;;;3.52;64.88;100665.31;5094923;28;20052;-68
2022/03/26 05:02:41;;;;;;;13.18;6.03;;;;;;;3.65;64.78;100652.41;5095147;28;20055;-68
2022/03/26 05:05:13;;;;;;;14.30;6.50;;;;;;;3.75;64.29;100659.56;5095182;28;20122;-69
2022/03/26 05:07:48;;;;;;;14.77;6.72;;;;;;;3.65;63.91;100657.44;5095398;28;20044;-69
2022/03/26 05:10:19;;;;;;;13.20;5.68;;;;;;;3.74;64.10;100672.97;5095116;28;20097;-69
2022/03/26 05:12:49;;;;;;;18.92;6.60;;;;;;;3.91;64.28;100661.94;5094556;28;20044;-69
2022/03/26 05:15:21;;;;;;;13.05;6.05;;;;;;;4.06;64.52;100660.03;5094595;28;20076;-69
2022/03/26 05:17:51;;;;;;;12.68;6.45;;;;;;;4.11;64.04;100661.88;5094491;28;20052;-68
2022/03/26 05:20:21;;;;;;;14.57;6.45;;;;;;;4.12;64.34;100663.63;5094541;28;20040;-68
2022/03/26 05:22:52;;;;;;;17.23;7.03;;;;;;;4.14;63.49;100667.06;5093741;28;20044;-68
2022/03/26 05:25:21;;;;;;;12.75;6.13;;;;;;;4.14;63.46;100669.59;5094486;28;20044;-69
2022/03/26 05:27:52;;;;;;;14.57;6.93;;;;;;;4.26;63.53;100670.09;5094283;28;20040;-68
2022/03/26 05:30:22;;;;;;;14.30;6.85;;;;;;;4.43;63.51;100664.03;5094391;28;20105;-69
2022/03/26 05:32:51;;;;;;;15.30;7.20;;;;;;;4.64;63.40;100673.31;5094303;28;20051;-68
2022/03/26 05:35:22;;;;;;;21.08;7.10;;;;;;;4.72;63.19;100679.56;5094614;28;20043;-68
2022/03/26 05:37:51;;;;;;;15.55;6.85;;;;;;;4.79;63.36;100670.53;5094593;28;20109;-68
2022/03/26 05:40:22;;;;;;;14.05;6.88;;;;;;;4.89;63.33;100676.78;5094474;28;20398;-68
2022/03/26 05:42:52;;;;;;;14.80;6.55;;;;;;;5.12;62.76;100679.38;5094404;28;20048;-69
2022/03/26 05:45:21;;;;;;;;;;;;;;;5.39;61.70;100682.03;5094776;28;20501;-68
2022/03/26 05:47:51;;;;;;;17.45;6.50;;;;;;;5.50;61.57;100690.88;5094037;28;19969;-69
2022/03/26 05:50:21;;;;;;;18.35;7.53;;;;;;;5.82;61.55;100679.34;5094038;28;20054;-69
2022/03/26 05:52:50;;;;;;;17.52;7.28;;;;;;;6.04;60.50;100676.75;5093956;28;20044;-68
2022/03/26 05:55:19;;;;;;;18.70;7.15;;;;;;;6.18;60.00;100679.72;5093890;28;20101;-69
2022/03/26 05:57:48;;;;;;;18.20;7.00;;;;;;;6.40;59.48;100677.94;5093954;28;20036;-69
2022/03/26 06:00:18;;;;;;;14.60;6.50;;;;;;;6.51;59.10;100676.59;5094205;28;20040;-68
2022/03/26 06:02:48;;;;;;;17.05;7.47;;;;;;;6.85;58.80;100687.78;5094411;28;20273;-68
2022/03/26 06:05:17;;;;;;;18.67;7.20;;;;;;;6.97;58.41;100683.06;5094056;28;20094;-68
2022/03/26 06:07:47;;;;;;;19.50;7.65;;;;;;;6.97;57.81;100681.41;5093925;28;20048;-69
2022/03/26 06:10:16;;;;;;;17.27;7.60;;;;;;;7.09;57.67;100688.50;5094433;28;20135;-69
2022/03/26 06:12:45;;;;;;;17.53;8.00;;;;;;;7.16;57.39;100688.75;5093669;28;20048;-69
2022/03/26 06:15:15;;;;;;;20.35;8.23;;;;;;;7.30;56.99;100692.53;5093935;28;20072;-69
2022/03/26 06:18:04;;;;;;;19.60;8.10;;;;;;;7.34;56.58;100690.97;5093307;28;20055;-69
2022/03/26 06:20:33;;;;;;;15.65;7.57;;;;;;;7.53;56.15;100689.78;5093536;28;20044;-69
2022/03/26 06:23:03;;;;;;;19.05;8.32;;;;;;;7.72;55.65;100697.94;5093500;28;20152;-69
2022/03/26 06:25:33;;;;;;;15.43;7.43;;;;;;;7.85;55.74;100694.91;5093817;28;20056;-69
2022/03/26 06:28:02;;;;;;;16.63;8.10;;;;;;;8.09;55.21;100704.84;5093479;28;20043;-69
2022/03/26 06:30:31;;;;;;;16.60;7.70;;;;;;;8.34;54.69;100708.91;5094118;28;20557;-70
2022/03/26 06:33:00;;;;;;;15.07;6.35;;;;;;;8.51;55.06;100697.44;5094715;28;20119;-69
2022/03/26 06:35:30;;;;;;;16.20;7.43;;;;;;;8.57;54.47;100697.59;5097557;28;20048;-69
2022/03/26 06:37:59;;;;;;;14.40;6.70;;;;;;;8.84;53.40;100699.91;5097610;28;20040;-69
2022/03/26 06:40:30;;;;;;;14.80;7.60;;;;;;;8.85;53.90;100699.97;5097502;28;20040;-69
2022/03/26 06:42:59;;;;;;;15.93;7.70;;;;;;;9.04;53.09;100702.09;5097582;28;20047;-69
2022/03/26 06:45:28;;;;;;;13.52;5.60;;;;;;;9.51;52.33;100699.63;5097677;28;20047;-69
2022/03/26 06:47:57;;;;;;;15.80;7.40;;;;;;;9.66;51.68;100695.72;5097184;28;20505;-69
2022/03/26 06:50:26;;;;;;;14.80;7.65;;;;;;;9.60;52.26;100704.94;5097375;28;20061;-69
2022/03/26 06:52:56;;;;;;;17.10;7.70;;;;;;;9.72;51.52;100705.16;5097706;28;20094;-70
2022/03/26 06:55:24;;;;;;;14.40;7.25;;;;;;;9.88;51.04;100704.63;5097889;28;20482;-69
2022/03/26 06:57:55;;;;;;;13.05;6.32;;;;;;;9.91;50.70;100704.69;5097399;28;20524;-69
2022/03/26 07:00:24;;;;;;;12.02;6.63;;;;;;;10.03;50.58;100709.97;5097178;28;20052;-69
2022/03/26 07:02:53;;;;;;;15.85;7.35;;;;;;;10.06;50.72;100704.94;5097182;28;20064;-69
2022/03/26 07:05:22;;;;;;;12.65;7.05;;;;;;;10.14;50.81;100705.97;5097103;28;20123;-69
2022/03/26 07:07:51;;;;;;;14.68;7.10;;;;;;;10.23;50.60;100706.13;5096991;28;20047;-69
2022/03/26 07:10:20;;;;;;;17.92;7.05;;;;;;;10.44;49.94;100711.59;5096924;28;20040;-68
2022/03/26 07:12:49;;;;;;;13.40;5.70;;;;;;;10.60;49.61;100708.47;5096787;28;20044;-69
2022/03/26 07:15:19;;;;;;;16.50;7.93;;;;;;;10.95;49.23;100708.13;5097128;28;20143;-69
2022/03/26 07:17:48;;;;;;;13.63;7.97;;;;;;;11.15;49.37;100705.00;5096604;28;20055;-69
2022/03/26 07:20:17;;;;;;;18.88;7.82;;;;;;;11.38;48.40;100707.84;5096834;28;20044;-69
2022/03/26 07:22:46;;;;;;;12.10;5.93;;;;;;;11.44;48.49;100711.31;5096729;28;20043;-69
2022/03/26 07:25:15;;;;;;;18.02;7.60;;;;;;;11.37;47.99;100716.38;5096815;28;20036;-69
2022/03/26 07:27:44;;;;;;;15.40;8.23;;;;;;;11.49;47.56;100711.41;5096822;28;20039;-68
2022/03/26 07:30:13;;;;;;;11.33;5.13;;;;;;;11.66;47.68;100720.13;5096910;28;20397;-68
2022/03/26 07:32:44;;;;;;;16.13;6.85;;;;;;;11.86;46.75;100708.44;5096859;28;20067;-69
2022/03/26 07:35:13;;;;;;;13.98;6.47;;;;;;;12.18;46.23;100711.34;5096638;28;20048;-69
2022/03/26 07:37:43;;;;;;;10.90;5.50;;;;;;;12.38;46.33;100703.84;5095718;28;20040;-69
2022/03/26 07:40:16;;;;;;;20.23;7.85;;;;;;;12.70;45.30;100704.91;5094047;28;20359;-69
2022/03/26 07:42:44;;;;;;;15.90;7.07;;;;;;;12.96;44.54;100705.94;5095878;28;20044;-69
2022/03/26 07:45:14;;;;;;;13.00;6.80;;;;;;;13.07;44.33;100703.50;5095571;28;20040;-68
2022/03/26 07:47:44;;;;;;;13.15;6.85;;;;;;;13.29;44.09;100705.31;5096044;28;20631;-69
2022/03/26 07:50:13;;;;;;;13.55;7.18;;;;;;;13.26;43.46;100706.16;5095772;28;20048;-69
2022/03/26 07:52:42;;;;;;;13.55;6.78;;;;;;;13.55;43.49;100708.00;5096190;28;20055;-69
2022/03/26 07:55:11;;;;;;;16.20;7.57;;;;;;;13.63;43.62;100707.16;5096476;28;20446;-69
2022/03/26 07:57:40;;;;;;;12.85;6.43;;;;;;;13.77;42.30;100702.91;5095989;28;20052;-69
2022/03/26 08:00:10;;;;;;;15.47;7.50;;;;;;;13.84;42.31;100680.72;5096017;28;20044;-69
2022/03/26 08:02:41;;;;;;;14.85;7.68;;;;;;;14.09;41.43;100692.72;5096041;28;20044;-69
2022/03/26 08:05:12;;;;;;;17.30;8.23;;;;;;;14.10;41.31;100695.31;5095962;28;20044;-69
2022/03/26 08:07:41;;;;;;;18.33;8.82;;;;;;;14.44;41.41;100696.22;5096114;28;20440;-69
2022/03/26 08:10:10;;;;;;;17.10;8.65;;;;;;;14.52;40.67;100706.47;5095896;28;20040;-69
2022/03/26 08:12:39;;;;;;;16.05;8.25;;;;;;;14.29;40.54;100683.34;5095808;28;20070;-69
2022/03/26 08:15:09;;;;;;;18.17;9.00;;;;;;;14.53;40.78;100701.34;5096186;28;20119;-69
2022/03/26 08:17:38;;;;;;;20.63;8.00;;;;;;;14.70;40.50;100691.91;5095573;28;20299;-68
2022/03/26 08:20:08;;;;;;;15.20;8.00;;;;;;;14.97;39.94;100682.44;5095708;28;20048;-68
2022/03/26 08:22:41;;;;;;;15.45;8.18;;;;;;;15.54;39.26;100687.41;5095681;28;20056;-69
2022/03/26 08:25:11;;;;;;;16.10;8.82;;;;;;;15.73;38.43;100688.16;5095754;28;20048;-68
2022/03/26 08:27:39;;;;;;;;;;;;;;;15.52;38.22;100686.56;5096286;28;20123;-68
2022/03/26 08:30:09;;;;;;;16.52;8.30;;;;;;;15.85;38.21;100688.94;5095673;28;19931;-68
2022/03/26 08:32:38;;;;;;;19.58;8.90;;;;;;;16.09;38.01;100688.78;5095821;28;20482;-68
2022/03/26 08:35:10;;;;;;;16.02;7.80;;;;;;;16.02;37.85;100679.41;5095259;28;20391;-68
2022/03/26 08:37:40;;;;;;;16.80;8.57;;;;;;;16.18;36.80;100676.69;5077257;28;20382;-68
2022/03/26 08:40:11;;;;;;;17.63;8.52;;;;;;;16.21;36.48;100682.69;5095258;28;20486;-68
2022/03/26 08:42:40;;;;;;;18.05;8.65;;;;;;;16.39;36.73;100676.53;5095164;28;20055;-68
2022/03/26 08:45:09;;;;;;;16.80;9.38;;;;;;;16.86;36.78;100674.41;5095197;28;20048;-68
2022/03/26 08:47:39;;;;;;;20.23;9.25;;;;;;;16.90;35.65;100681.22;5094830;28;20048;-68
2022/03/26 08:50:09;;;;;;;19.42;9.13;;;;;;;16.87;34.94;100681.25;5095182;28;20485;-68
2022/03/26 08:52:40;;;;;;;22.20;9.52;;;;;;;17.10;35.28;100681.03;5095301;28;20040;-68
2022/03/26 08:55:10;;;;;;;18.20;9.27;;;;;;;17.24;34.54;100682.59;5095303;28;20097;-68
2022/03/26 08:57:38;;;;;;;;;;;;;;;17.03;33.83;100677.66;5094322;28;20071;-68
2022/03/26 09:00:09;;;;;;;21.30;9.98;;;;;;;17.26;34.70;100675.66;5095226;28;20018;-68
2022/03/26 09:02:38;;;;;;;24.02;9.57;;;;;;;17.30;34.20;100674.75;5094881;28;20098;-68
2022/03/26 09:05:07;;;;;;;;;;;;;;;17.15;33.81;100677.53;5095246;28;20098;-68
2022/03/26 09:07:37;;;;;;;19.67;9.50;;;;;;;17.46;33.69;100672.00;5094781;28;19919;-68
2022/03/26 09:10:09;;;;;;;20.10;9.85;;;;;;;17.33;33.35;100677.31;5094872;28;20394;-68
2022/03/26 09:12:38;;;;;;;22.45;9.02;;;;;;;17.69;33.42;100667.41;5093527;28;20050;-68
2022/03/26 09:15:08;;;;;;;16.58;7.35;;;;;;;17.84;34.06;100662.03;5094943;28;20402;-68
2022/03/26 09:17:38;;;;;;;20.08;9.75;;;;;;;18.07;33.41;100665.09;5094426;28;20051;-68
2022/03/26 09:20:08;;;;;;;21.65;9.90;;;;;;;17.95;32.93;100662.72;5094716;28;20044;-68
2022/03/26 09:22:37;;;;;;;20.10;9.00;;;;;;;18.06;32.69;100660.84;5094437;28;20056;-68
2022/03/26 09:25:08;;;;;;;19.60;9.90;;;;;;;18.36;32.26;100660.31;5094480;28;20048;-68
2022/03/26 09:27:38;;;;;;;22.20;9.43;;;;;;;18.27;32.36;100654.47;5094686;28;20448;-68
2022/03/26 09:30:08;;;;;;;18.65;9.50;;;;;;;18.43;31.36;100656.75;5094561;28;20039;-68
2022/03/26 09:32:37;;;;;;;20.83;9.98;;;;;;;18.82;30.75;100652.66;5094439;28;20040;-68
2022/03/26 09:35:06;;;;;;;19.60;9.73;;;;;;;19.22;31.97;100652.72;5094835;28;20044;-68
2022/03/26 09:37:35;;;;;;;19.95;10.13;;;;;;;19.27;31.01;100650.88;5094226;28;20040;-68
2022/03/26 09:40:05;;;;;;;19.53;9.87;;;;;;;18.89;31.87;100650.78;5094373;28;20454;-68
2022/03/26 09:42:37;;;;;;;21.17;9.88;;;;;;;19.36;31.97;100642.97;5094121;28;20059;-68
2022/03/26 09:45:08;;;;;;;21.88;9.52;;;;;;;19.33;31.75;100648.19;5094433;28;20074;-69
2022/03/26 09:47:38;;;;;;;16.85;8.73;;;;;;;19.66;30.27;100647.47;5094053;28;20055;-69
2022/03/26 09:50:09;;;;;;;20.60;8.60;;;;;;;19.69;30.65;100639.66;5093993;28;20135;-69
2022/03/26 09:52:40;;;;;;;18.92;9.60;;;;;;;19.57;29.07;100636.47;5094070;28;20125;-68
2022/03/26 09:55:12;;;;;;;17.80;8.95;;;;;;;19.75;30.40;100628.28;5094193;28;20097;-68
2022/03/26 09:57:43;;;;;;;20.65;9.25;;;;;;;20.30;30.64;100635.66;5093922;28;20055;-68
2022/03/26 10:00:15;;;;;;;19.67;9.18;;;;;;;20.50;29.83;100628.19;5093883;28;20040;-69
2022/03/26 10:02:44;;;;;;;17.38;8.05;;;;;;;20.89;29.56;100627.13;5093960;28;20056;-69
2022/03/26 10:05:18;;;;;;;19.13;9.25;;;;;;;21.03;28.86;100632.78;5093731;28;20054;-68
2022/03/26 10:07:50;;;;;;;16.27;8.40;;;;;;;21.04;27.76;100631.88;5093461;28;20508;-68
2022/03/26 10:10:24;;;;;;;17.95;7.47;;;;;;;21.27;26.48;100619.13;5093750;28;20067;-69
2022/03/26 10:12:54;;;;;;;15.07;7.53;;;;;;;21.38;25.96;100621.38;5093570;28;20062;-69
2022/03/26 10:15:23;;;;;;;16.33;6.93;;;;;;;21.44;25.42;100615.16;5093937;28;20379;-68
2022/03/26 10:17:53;;;;;;;15.25;7.07;;;;;;;21.35;25.50;100611.94;5093342;28;20059;-68
2022/03/26 10:20:24;;;;;;;14.73;7.10;;;;;;;21.09;24.73;100619.66;5093527;28;20044;-68
2022/03/26 10:22:54;;;;;;;15.65;6.90;;;;;;;21.13;25.94;100620.44;5093554;28;20058;-68
2022/03/26 10:25:25;;;;;;;13.50;6.80;;;;;;;21.26;25.84;100612.22;5093550;28;20044;-68
2022/03/26 10:27:57;;;;;;;14.15;7.50;;;;;;;21.20;25.37;100612.41;5093551;28;20044;-68
2022/03/26 10:33:20;;;;;;;16.67;7.40;;;;;;;21.42;25.55;100603.97;5093487;28;20136;-68
2022/03/26 10:36:00;;;;;;;13.88;7.07;;;;;;;21.64;25.53;100607.63;5093734;28;20062;-68
2022/03/26 10:38:31;;;;;;;14.82;6.78;;;;;;;21.51;25.06;100598.50;5093803;28;20051;-69
2022/03/26 10:41:07;;;;;;;15.45;7.07;;;;;;;21.71;24.99;100589.19;5093991;28;20036;-68
2022/03/26 10:43:41;;;;;;;15.38;6.85;;;;;;;21.57;24.45;100595.72;5094572;28;20462;-68
2022/03/26 10:46:10;;;;;;;14.77;7.15;;;;;;;21.55;24.41;100600.09;5093551;28;20069;-68
2022/03/26 10:48:39;;;;;;;13.20;6.90;;;;;;;21.58;24.77;100595.66;5093345;28;20052;-68
2022/03/26 10:51:09;;;;;;;;;;;;;;;21.83;24.91;100599.22;5094112;28;20117;-68
2022/03/26 10:53:41;;;;;;;12.45;5.90;;;;;;;22.04;25.02;100597.69;5093338;28;19927;-69
2022/03/26 10:56:11;;;;;;;13.20;5.70;;;;;;;22.08;24.39;100590.63;5093604;28;20532;-69
2022/03/26 10:58:43;;;;;;;16.65;6.82;;;;;;;21.95;24.47;100592.78;5093282;28;20040;-69
2022/03/26 11:01:13;;;;;;;15.10;6.95;;;;;;;21.68;23.07;100578.03;5093244;28;20052;-69
2022/03/26 11:03:43;;;;;;;13.18;6.70;;;;;;;21.56;23.51;100588.81;5093028;28;20055;-69
2022/03/26 11:06:15;;;;;;;14.52;6.68;;;;;;;21.46;24.13;100530.25;5093079;28;20044;-69
2022/03/26 11:08:47;;;;;;;12.25;5.47;;;;;;;22.15;24.29;100579.97;5093507;28;20064;-68
2022/03/26 11:11:16;;;;;;;15.45;6.38;;;;;;;22.29;23.31;100577.75;5093404;28;20051;-69
2022/03/26 11:13:49;;;;;;;11.03;5.10;;;;;;;22.37;23.83;100578.34;5093419;28;20047;-68
2022/03/26 11:16:31;;;;;;;9.60;4.50;;;;;;;22.19;23.24;100576.38;5093088;28;20086;-69
2022/03/26 11:19:12;;;;;;;9.38;5.03;;;;;;;22.37;23.65;100564.47;5093005;28;20528;-68
2022/03/26 11:22:06;;;;;;;10.15;4.55;;;;;;;22.74;23.70;100562.31;5097054;28;20051;-69
2022/03/26 11:25:07;;;;;;;8.18;4.50;;;;;;;22.88;23.70;100556.59;5096862;28;20048;-69
2022/03/26 11:27:56;;;;;;;10.38;5.35;;;;;;;22.82;23.46;100556.81;5091147;28;20044;-69
2022/03/26 11:30:40;;;;;;;9.35;4.43;;;;;;;23.14;23.97;100548.63;5096782;28;20486;-69
2022/03/26 11:33:12;;;;;;;9.02;4.75;;;;;;;23.09;23.71;100540.16;5096626;28;20056;-69
2022/03/26 11:35:56;;;;;;;10.00;4.63;;;;;;;22.74;23.69;100538.03;5096651;28;20135;-69
2022/03/26 11:38:28;;;;;;;7.88;4.00;;;;;;;22.89;24.54;100534.88;5096524;28;20052;-69
2022/03/26 11:40:58;;;;;;;8.40;4.50;;;;;;;23.00;23.91;100536.16;5096510;28;20043;-68